createdAt,value
2019-02-10T00:01:57.819Z,99369.55
2019-02-10T00:04:38.361Z,99372.52
2019-02-10T00:07:24.254Z,99377.48
2019-02-10T00:09:58.377Z,99371.77
2019-02-10T00:12:31.064Z,99363.45
2019-02-10T00:15:05.783Z,99366.84
2019-02-10T00:17:39.611Z,99360.97
2019-02-10T00:20:16.776Z,99369.77
2019-02-10T00:22:53.167Z,99378.97
2019-02-10T00:25:27.886Z,99376.16
2019-02-10T00:28:02.415Z,99369.77
2019-02-10T00:30:39.132Z,99375.78
2019-02-10T00:33:14.644Z,99370.28
2019-02-10T00:35:51.184Z,99368.64
2019-02-10T00:38:27.043Z,99371.62
2019-02-10T00:41:02.897Z,99377.69
2019-02-10T00:43:37.341Z,99371.73
2019-02-10T00:46:13.739Z,99374.50
2019-02-10T00:48:49.047Z,99375.65
2019-02-10T00:51:26.125Z,99370.12
2019-02-10T00:54:00.069Z,99381.17
2019-02-10T00:56:33.985Z,99372.45
2019-02-10T00:59:11.205Z,99377.39
2019-02-10T01:01:45.846Z,99364.20
2019-02-10T01:04:22.116Z,99373.06
2019-02-10T01:06:58.723Z,99372.22
2019-02-10T01:09:34.270Z,99370.90
2019-02-10T01:12:09.029Z,99366.21
2019-02-10T01:14:47.472Z,99368.56
2019-02-10T01:17:23.079Z,99361.00
2019-02-10T01:19:57.672Z,99360.75
2019-02-10T01:22:30.840Z,99359.58
2019-02-10T01:25:05.925Z,99362.41
2019-02-10T01:27:56.440Z,99359.30
2019-02-10T01:30:28.207Z,99359.92
2019-02-10T01:33:00.156Z,99357.20
2019-02-10T01:35:32.672Z,99356.67
2019-02-10T01:38:04.554Z,99353.01
2019-02-10T01:40:36.580Z,99347.61
2019-02-10T01:43:08.280Z,99346.48
2019-02-10T01:45:40.065Z,99345.75
2019-02-10T01:48:11.784Z,99342.09
2019-02-10T01:50:43.410Z,99343.67
2019-02-10T01:53:15.863Z,99335.89
2019-02-10T01:55:47.563Z,99335.09
2019-02-10T01:58:19.408Z,99329.87
2019-02-10T02:00:51.209Z,99331.67
2019-02-10T02:03:22.800Z,99323.91
2019-02-10T02:05:54.847Z,99320.19
2019-02-10T02:08:26.621Z,99312.52
2019-02-10T02:10:59.205Z,99307.19
2019-02-10T02:13:30.994Z,99306.94
2019-02-10T02:16:04.367Z,99305.28
2019-02-10T02:18:36.654Z,99296.83
2019-02-10T02:21:09.383Z,99305.61
2019-02-10T02:23:41.133Z,99301.56
2019-02-10T02:26:13.322Z,99292.78
2019-02-10T02:28:45.036Z,99294.63
2019-02-10T02:31:16.814Z,99292.39
2019-02-10T02:33:48.760Z,99298.85
2019-02-10T02:36:20.527Z,99305.21
2019-02-10T02:38:52.843Z,99311.27
2019-02-10T02:41:24.880Z,99313.86
2019-02-10T02:43:56.607Z,99315.06
2019-02-10T02:46:28.215Z,99306.68
2019-02-10T02:48:59.970Z,99305.52
2019-02-10T02:51:32.171Z,99305.61
2019-02-10T02:54:04.011Z,99299.90
2019-02-10T02:56:35.690Z,99293.30
2019-02-10T02:59:07.407Z,99288.97
2019-02-10T03:01:39.529Z,99285.83
2019-02-10T03:04:11.123Z,99284.01
2019-02-10T03:06:46.188Z,99272.98
2019-02-10T03:09:18.745Z,99271.75
2019-02-10T03:11:50.546Z,99267.28
2019-02-10T03:14:24.087Z,99261.73
2019-02-10T03:16:55.947Z,99251.78
2019-02-10T03:19:27.503Z,99253.89
2019-02-10T03:22:02.754Z,99251.38
2019-02-10T03:24:34.716Z,99254.86
2019-02-10T03:27:06.448Z,99253.31
2019-02-10T03:29:38.196Z,99257.45
2019-02-10T03:32:09.902Z,99254.00
2019-02-10T03:34:41.538Z,99252.70
2019-02-10T03:37:13.494Z,99248.34
2019-02-10T03:39:45.193Z,99247.75
2019-02-10T03:42:17.074Z,99250.38
2019-02-10T03:44:48.708Z,99231.84
2019-02-10T03:47:22.193Z,99220.06
2019-02-10T03:49:53.920Z,99221.05
2019-02-10T03:52:26.678Z,99217.08
2019-02-10T03:54:58.369Z,99209.37
2019-02-10T03:57:29.867Z,99221.44
2019-02-10T04:00:01.641Z,99219.59
2019-02-10T04:02:33.324Z,99224.34
2019-02-10T04:05:04.984Z,99226.50
2019-02-10T04:07:36.930Z,99231.37
2019-02-10T04:10:09.523Z,99239.87
2019-02-10T04:12:41.224Z,99231.91
2019-02-10T04:15:13.074Z,99225.86
2019-02-10T04:17:44.727Z,99230.92
2019-02-10T04:20:16.468Z,99230.25
2019-02-10T04:22:48.329Z,99229.94
2019-02-10T04:25:20.084Z,99231.30
2019-02-10T04:27:51.705Z,99238.87
2019-02-10T04:30:23.444Z,99239.33
2019-02-10T04:32:55.148Z,99237.17
2019-02-10T04:35:26.885Z,99239.55
2019-02-10T04:37:58.557Z,99242.55
2019-02-10T04:40:30.131Z,99239.55
2019-02-10T04:43:01.723Z,99241.70
2019-02-10T04:45:33.480Z,99235.06
2019-02-10T04:48:05.191Z,99233.98
2019-02-10T04:50:36.735Z,99236.67
2019-02-10T04:53:08.366Z,99236.27
2019-02-10T04:55:40.194Z,99233.59
2019-02-10T04:58:11.963Z,99226.41
2019-02-10T05:00:43.539Z,99224.66
2019-02-10T05:03:15.317Z,99213.31
2019-02-10T05:05:47.156Z,99214.47
2019-02-10T05:08:19.278Z,99214.70
2019-02-10T05:10:51.056Z,99210.72
2019-02-10T05:13:22.842Z,99210.19
2019-02-10T05:15:54.472Z,99214.40
2019-02-10T05:18:26.258Z,99204.86
2019-02-10T05:20:58.042Z,99193.81
2019-02-10T05:23:29.968Z,99197.66
2019-02-10T05:26:02.185Z,99200.29
2019-02-10T05:28:34.325Z,99199.64
2019-02-10T05:31:06.902Z,99195.00
2019-02-10T05:33:38.655Z,99192.05
2019-02-10T05:36:10.335Z,99188.30
2019-02-10T05:38:42.058Z,99193.19
2019-02-10T05:41:13.805Z,99190.36
2019-02-10T05:43:45.567Z,99196.77
2019-02-10T05:46:17.436Z,99196.31
2019-02-10T05:48:49.739Z,99193.57
2019-02-10T05:51:21.661Z,99192.58
2019-02-10T05:53:53.567Z,99192.87
2019-02-10T05:56:25.597Z,99182.98
2019-02-10T05:58:57.558Z,99185.59
2019-02-10T06:02:06.198Z,99189.67
2019-02-10T06:04:43.086Z,99188.73
2019-02-10T06:07:18.451Z,99195.94
2019-02-10T06:09:50.284Z,99200.33
2019-02-10T06:12:26.070Z,99211.34
2019-02-10T06:14:57.908Z,99204.89
2019-02-10T06:17:29.582Z,99201.53
2019-02-10T06:20:01.690Z,99203.64
2019-02-10T06:22:33.615Z,99195.09
2019-02-10T06:25:05.627Z,99195.58
2019-02-10T06:27:37.539Z,99186.27
2019-02-10T06:30:10.301Z,99194.75
2019-02-10T06:32:42.692Z,99194.48
2019-02-10T06:35:17.714Z,99178.29
2019-02-10T06:37:49.614Z,99182.68
2019-02-10T06:40:21.300Z,99181.50
2019-02-10T06:42:53.092Z,99180.45
2019-02-10T06:45:24.762Z,99186.59
2019-02-10T06:47:57.912Z,99178.84
2019-02-10T06:50:29.609Z,99178.47
2019-02-10T06:53:01.509Z,99181.62
2019-02-10T06:55:33.532Z,99186.55
2019-02-10T06:58:05.393Z,99191.48
2019-02-10T07:00:50.370Z,99193.03
2019-02-10T07:03:56.554Z,99191.79
2019-02-10T07:06:28.482Z,99197.30
2019-02-10T07:09:04.591Z,99199.20
2019-02-10T07:11:36.197Z,99204.08
2019-02-10T07:14:35.400Z,99195.53
2019-02-10T07:17:50.555Z,99189.17
2019-02-10T07:20:44.477Z,99197.39
2019-02-10T07:24:25.728Z,99216.17
2019-02-10T07:26:59.880Z,99202.75
2019-02-10T07:30:29.513Z,99190.84
2019-02-10T07:33:03.812Z,99198.51
2019-02-10T07:36:17.252Z,99195.08
2019-02-10T07:39:56.023Z,99203.70
2019-02-10T07:43:15.624Z,99199.39
2019-02-10T07:46:50.901Z,99211.67
2019-02-10T07:49:46.722Z,99214.47
2019-02-10T07:52:52.468Z,99211.22
2019-02-10T07:56:28.915Z,99221.13
2019-02-10T07:59:51.831Z,99209.14
2019-02-10T08:03:28.659Z,99193.23
2019-02-10T08:06:47.570Z,99192.16
2019-02-10T08:10:17.666Z,99183.95
2019-02-10T08:13:35.350Z,99172.78
2019-02-10T08:17:28.815Z,99179.70
2019-02-10T08:20:54.055Z,99187.25
2019-02-10T08:24:06.610Z,99191.52
2019-02-10T08:27:29.913Z,99185.39
2019-02-10T08:30:42.322Z,99179.11
2019-02-10T08:33:45.064Z,99171.77
2019-02-10T08:36:53.364Z,99182.53
2019-02-10T08:39:58.694Z,99199.62
2019-02-10T08:43:36.493Z,99184.79
2019-02-10T08:46:48.441Z,99197.05
2019-02-10T08:49:50.951Z,99189.92
2019-02-10T08:53:03.627Z,99183.77
2019-02-10T08:55:35.572Z,99188.34
2019-02-10T08:58:07.564Z,99185.41
2019-02-10T09:00:39.540Z,99181.64
2019-02-10T09:03:19.214Z,99180.51
2019-02-10T09:06:03.858Z,99185.44
2019-02-10T09:08:36.468Z,99164.09
2019-02-10T09:11:08.501Z,99141.19
2019-02-10T09:13:40.586Z,99151.80
2019-02-10T09:16:15.701Z,99157.44
2019-02-10T09:18:49.109Z,99157.68
2019-02-10T09:21:21.286Z,99161.58
2019-02-10T09:23:53.955Z,99163.41
2019-02-10T09:26:26.106Z,99165.77
2019-02-10T09:28:58.288Z,99154.55
2019-02-10T09:31:30.708Z,99167.28
2019-02-10T09:34:02.667Z,99154.68
2019-02-10T09:36:34.651Z,99170.22
2019-02-10T09:39:10.965Z,99181.36
2019-02-10T09:41:40.975Z,99178.98
2019-02-10T09:44:13.058Z,99168.53
2019-02-10T09:46:45.030Z,99167.82
2019-02-10T09:49:16.709Z,99151.25
2019-02-10T09:51:48.780Z,99160.25
2019-02-10T09:54:20.678Z,99152.27
2019-02-10T09:56:52.947Z,99163.98
2019-02-10T09:59:26.084Z,99169.38
2019-02-10T10:01:57.887Z,99147.31
2019-02-10T10:04:29.806Z,99176.34
2019-02-10T10:07:01.550Z,99159.31
2019-02-10T10:09:33.472Z,99166.17
2019-02-10T10:12:05.427Z,99150.84
2019-02-10T10:14:37.237Z,99160.44
2019-02-10T10:17:08.791Z,99161.34
2019-02-10T10:19:44.746Z,99157.73
2019-02-10T10:22:16.543Z,99155.06
2019-02-10T10:24:50.507Z,99165.30
2019-02-10T10:27:21.539Z,99162.06
2019-02-10T10:29:53.316Z,99165.41
2019-02-10T10:32:24.909Z,99156.45
2019-02-10T10:34:56.409Z,99157.22
2019-02-10T10:37:28.087Z,99156.63
2019-02-10T10:39:59.984Z,99162.73
2019-02-10T10:42:40.317Z,99156.77
2019-02-10T10:45:12.762Z,99159.49
2019-02-10T10:47:44.583Z,99153.49
2019-02-10T10:50:16.644Z,99143.40
2019-02-10T10:52:48.225Z,99143.39
2019-02-10T10:55:19.854Z,99164.70
2019-02-10T10:57:52.728Z,99150.14
2019-02-10T11:00:24.279Z,99139.39
2019-02-10T11:02:56.098Z,99149.63
2019-02-10T11:05:27.877Z,99136.89
2019-02-10T11:07:59.229Z,99124.77
2019-02-10T11:10:30.622Z,99130.41
2019-02-10T11:13:02.230Z,99122.13
2019-02-10T11:15:34.172Z,99127.74
2019-02-10T11:18:10.733Z,99120.59
2019-02-10T11:20:42.322Z,99126.70
2019-02-10T11:23:14.845Z,99110.25
2019-02-10T11:25:46.398Z,99091.36
2019-02-10T11:28:17.930Z,99119.05
2019-02-10T11:30:49.417Z,99097.41
2019-02-10T11:33:21.831Z,99107.53
2019-02-10T11:35:54.169Z,99073.92
2019-02-10T11:38:26.458Z,99061.83
2019-02-10T11:40:58.169Z,99060.48
2019-02-10T11:43:29.775Z,99058.66
2019-02-10T11:46:02.008Z,99053.88
2019-02-10T11:48:34.221Z,99056.05
2019-02-10T11:51:06.255Z,99047.84
2019-02-10T11:53:38.569Z,99045.30
2019-02-10T11:56:10.184Z,99056.27
2019-02-10T11:58:41.788Z,99039.69
2019-02-10T12:01:13.965Z,99047.53
2019-02-10T12:03:45.865Z,99020.20
2019-02-10T12:06:17.777Z,99027.86
2019-02-10T12:08:49.724Z,99007.61
2019-02-10T12:11:21.805Z,99011.80
2019-02-10T12:13:54.267Z,99006.28
2019-02-10T12:16:27.124Z,98985.56
2019-02-10T12:19:00.269Z,98975.88
2019-02-10T12:21:33.360Z,98983.15
2019-02-10T12:24:06.057Z,98983.27
2019-02-10T12:26:38.879Z,98954.14
2019-02-10T12:29:10.558Z,98949.15
2019-02-10T12:31:42.002Z,98960.38
2019-02-10T12:34:13.922Z,98941.74
2019-02-10T12:36:45.578Z,98950.95
2019-02-10T12:39:17.222Z,98928.14
2019-02-10T12:41:49.429Z,98919.66
2019-02-10T12:44:21.267Z,98921.27
2019-02-10T12:46:52.853Z,98925.54
2019-02-10T12:49:24.542Z,98879.95
2019-02-10T12:51:56.204Z,98900.93
2019-02-10T12:54:28.201Z,98899.17
2019-02-10T12:56:59.899Z,98892.52
2019-02-10T12:59:31.593Z,98880.80
2019-02-10T13:02:06.680Z,98874.49
2019-02-10T13:04:38.298Z,98869.62
2019-02-10T13:07:10.092Z,98862.36
2019-02-10T13:09:41.880Z,98852.13
2019-02-10T13:12:17.541Z,98856.88
2019-02-10T13:14:46.821Z,98870.95
2019-02-10T13:17:18.648Z,98855.06
2019-02-10T13:19:50.726Z,98848.50
2019-02-10T13:22:22.634Z,98867.97
2019-02-10T13:24:59.077Z,98828.42
2019-02-10T13:27:30.683Z,98877.86
2019-02-10T13:30:02.205Z,98872.75
2019-02-10T13:32:34.339Z,98830.92
2019-02-10T13:35:06.869Z,98827.78
2019-02-10T13:37:38.787Z,98825.89
2019-02-10T13:40:19.074Z,98827.19
2019-02-10T13:42:51.164Z,98836.24
2019-02-10T13:45:23.521Z,98833.48
2019-02-10T13:47:55.913Z,98828.61
2019-02-10T13:50:27.866Z,98823.50
2019-02-10T13:52:59.236Z,98812.92
2019-02-10T13:55:31.162Z,98819.22
2019-02-10T13:58:02.760Z,98811.37
2019-02-10T14:00:34.511Z,98812.00
2019-02-10T14:03:05.828Z,98797.10
2019-02-10T14:05:37.602Z,98794.79
2019-02-10T14:08:09.177Z,98797.47
2019-02-10T14:10:40.781Z,98798.13
2019-02-10T14:13:12.435Z,98800.88
2019-02-10T14:15:44.176Z,98815.08
2019-02-10T14:18:16.039Z,98791.56
2019-02-10T14:20:48.090Z,98784.39
2019-02-10T14:23:19.985Z,98774.73
2019-02-10T14:25:56.678Z,98783.22
2019-02-10T14:28:28.510Z,98779.34
2019-02-10T14:31:00.369Z,98795.89
2019-02-10T14:33:38.626Z,98780.52
2019-02-10T14:36:06.319Z,98767.56
2019-02-10T14:38:38.612Z,98761.14
2019-02-10T14:41:20.072Z,98758.72
2019-02-10T14:43:51.950Z,98756.63
2019-02-10T14:46:24.425Z,98750.34
2019-02-10T14:48:56.703Z,98754.21
2019-02-10T14:51:28.991Z,98755.39
2019-02-10T14:54:01.177Z,98744.19
2019-02-10T14:56:33.478Z,98775.06
2019-02-10T14:59:05.830Z,98767.03
2019-02-10T15:01:38.026Z,98765.05
2019-02-10T15:04:10.738Z,98752.97
2019-02-10T15:06:43.345Z,98758.04
2019-02-10T15:09:15.851Z,98761.38
2019-02-10T15:11:54.192Z,98752.06
2019-02-10T15:14:26.598Z,98767.59
2019-02-10T15:16:59.022Z,98750.66
2019-02-10T15:19:31.459Z,98758.09
2019-02-10T15:22:03.658Z,98756.67
2019-02-10T15:24:36.007Z,98741.64
2019-02-10T15:27:10.076Z,98766.19
2019-02-10T15:29:42.461Z,98738.20
2019-02-10T15:32:16.851Z,98737.84
2019-02-10T15:34:48.739Z,98740.35
2019-02-10T15:37:20.809Z,98733.33
2019-02-10T15:39:53.058Z,98743.22
2019-02-10T15:42:25.751Z,98746.55
2019-02-10T15:44:58.448Z,98747.29
2019-02-10T15:47:30.763Z,98732.73
2019-02-10T15:50:04.148Z,98737.04
2019-02-10T15:52:40.954Z,98723.94
2019-02-10T15:55:13.718Z,98718.58
2019-02-10T15:57:46.208Z,98723.70
2019-02-10T16:00:22.750Z,98726.45
2019-02-10T16:02:55.360Z,98731.95
2019-02-10T16:05:27.874Z,98725.50
2019-02-10T16:08:00.845Z,98729.09
2019-02-10T16:10:33.498Z,98716.00
2019-02-10T16:13:07.308Z,98715.27
2019-02-10T16:15:40.137Z,98710.42
2019-02-10T16:18:15.786Z,98700.03
2019-02-10T16:20:52.523Z,98705.52
2019-02-10T16:23:25.911Z,98711.13
2019-02-10T16:25:59.793Z,98713.87
2019-02-10T16:28:39.904Z,98730.18
2019-02-10T16:31:12.762Z,98725.89
2019-02-10T16:33:54.449Z,98736.50
2019-02-10T16:36:27.570Z,98730.17
2019-02-10T16:39:16.347Z,98708.88
2019-02-10T16:41:52.297Z,98702.92
2019-02-10T16:44:25.172Z,98671.84
2019-02-10T16:46:58.108Z,98652.08
2019-02-10T16:49:31.317Z,98663.00
2019-02-10T16:52:03.974Z,98678.61
2019-02-10T16:54:36.618Z,98663.48
2019-02-10T16:57:13.623Z,98665.62
2019-02-10T16:59:46.558Z,98663.48
2019-02-10T17:02:20.081Z,98686.59
2019-02-10T17:04:53.588Z,98679.45
2019-02-10T17:07:27.361Z,98665.98
2019-02-10T17:10:00.736Z,98649.34
2019-02-10T17:12:33.750Z,98637.44
2019-02-10T17:15:06.756Z,98626.02
2019-02-10T17:17:39.837Z,98664.31
2019-02-10T17:20:22.694Z,98644.47
2019-02-10T17:22:56.348Z,98640.88
2019-02-10T17:25:29.443Z,98617.31
2019-02-10T17:28:07.280Z,98626.38
2019-02-10T17:30:40.694Z,98621.14
2019-02-10T17:33:13.894Z,98624.11
2019-02-10T17:35:47.301Z,98637.92
2019-02-10T17:38:21.633Z,98647.30
2019-02-10T17:41:11.541Z,98621.85
2019-02-10T17:43:45.035Z,98630.06
2019-02-10T17:46:23.105Z,98603.66
2019-02-10T17:49:01.324Z,98584.13
2019-02-10T17:51:36.197Z,98564.39
2019-02-10T17:54:11.944Z,98583.20
2019-02-10T17:56:46.009Z,98590.08
2019-02-10T17:59:22.077Z,98597.34
2019-02-10T18:02:01.467Z,98598.52
2019-02-10T18:04:37.484Z,98607.33
2019-02-10T18:07:08.974Z,98623.50
2019-02-10T18:09:46.066Z,98608.88
2019-02-10T18:12:18.837Z,98603.28
2019-02-10T18:15:19.439Z,98596.99
2019-02-10T18:18:00.774Z,98593.19
2019-02-10T18:21:04.180Z,98566.42
2019-02-10T18:23:53.062Z,98569.97
2019-02-10T18:26:54.087Z,98578.91
2019-02-10T18:29:52.559Z,98572.11
2019-02-10T18:32:51.665Z,98581.06
2019-02-10T18:35:46.432Z,98568.19
2019-02-10T18:38:30.538Z,98563.94
2019-02-10T18:41:24.711Z,98549.64
2019-02-10T18:44:15.265Z,98554.27
2019-02-10T18:46:57.708Z,98536.67
2019-02-10T18:50:04.356Z,98539.55
2019-02-10T18:52:55.581Z,98543.09
2019-02-10T18:55:38.679Z,98544.64
2019-02-10T18:58:30.453Z,98548.22
2019-02-10T19:01:31.032Z,98533.45
2019-02-10T19:04:28.423Z,98532.74
2019-02-10T19:07:31.792Z,98517.75
2019-02-10T19:10:22.783Z,98513.91
2019-02-10T19:13:17.295Z,98497.73
2019-02-10T19:16:06.810Z,98501.32
2019-02-10T19:19:10.451Z,98482.97
2019-02-10T19:22:00.597Z,98483.94
2019-02-10T19:24:57.836Z,98476.08
2019-02-10T19:27:50.400Z,98453.00
2019-02-10T19:30:45.371Z,98446.92
2019-02-10T19:33:39.897Z,98447.66
2019-02-10T19:37:01.141Z,98425.75
2019-02-10T19:39:52.621Z,98434.57
2019-02-10T19:42:47.865Z,98432.05
2019-02-10T19:45:43.308Z,98422.69
2019-02-10T19:48:39.055Z,98423.53
2019-02-10T19:51:24.464Z,98409.57
2019-02-10T19:54:19.645Z,98421.28
2019-02-10T19:57:28.928Z,98421.98
2019-02-10T20:00:36.731Z,98404.40
2019-02-10T20:03:32.904Z,98410.84
2019-02-10T20:06:33.277Z,98388.70
2019-02-10T20:09:28.977Z,98405.38
2019-02-10T20:12:27.339Z,98391.31
2019-02-10T20:15:35.994Z,98389.30
2019-02-10T20:18:34.979Z,98390.61
2019-02-10T20:21:29.323Z,98383.55
2019-02-10T20:24:21.306Z,98398.36
2019-02-10T20:27:27.625Z,98427.36
2019-02-10T20:30:12.356Z,98425.91
2019-02-10T20:33:05.476Z,98416.47
2019-02-10T20:35:57.640Z,98428.67
2019-02-10T20:38:48.518Z,98441.12
2019-02-10T20:41:43.453Z,98408.18
2019-02-10T20:44:33.873Z,98411.88
2019-02-10T20:47:31.413Z,98406.23
2019-02-10T20:50:25.514Z,98408.99
2019-02-10T20:53:17.891Z,98391.03
2019-02-10T20:56:08.414Z,98391.73
2019-02-10T20:58:55.062Z,98400.15
2019-02-10T21:01:51.377Z,98394.91
2019-02-10T21:04:49.905Z,98386.45
2019-02-10T21:07:47.664Z,98400.76
2019-02-10T21:10:54.334Z,98378.77
2019-02-10T21:13:45.079Z,98356.51
2019-02-10T21:16:35.576Z,98349.87
2019-02-10T21:19:14.665Z,98324.70
2019-02-10T21:22:05.769Z,98318.17
2019-02-10T21:25:05.292Z,98316.92
2019-02-10T21:27:48.452Z,98310.17
2019-02-10T21:30:41.718Z,98303.43
2019-02-10T21:33:22.174Z,98308.55
2019-02-10T21:36:09.806Z,98290.73
2019-02-10T21:38:51.560Z,98293.52
2019-02-10T21:41:34.471Z,98292.34
2019-02-10T21:44:29.541Z,98280.67
2019-02-10T21:47:12.622Z,98286.39
2019-02-10T21:49:45.516Z,98289.62
2019-02-10T21:52:17.392Z,98286.87
2019-02-10T21:54:52.570Z,98295.09
2019-02-10T21:57:24.493Z,98287.00
2019-02-10T21:59:57.843Z,98294.30
2019-02-10T22:02:29.812Z,98321.86
2019-02-10T22:05:01.965Z,98310.77
2019-02-10T22:07:33.821Z,98309.18
2019-02-10T22:10:06.196Z,98321.10
2019-02-10T22:12:40.085Z,98310.47
2019-02-10T22:15:12.098Z,98312.16
2019-02-10T22:17:43.660Z,98308.36
2019-02-10T22:20:15.252Z,98329.28
2019-02-10T22:22:46.707Z,98303.23
2019-02-10T22:25:18.703Z,98258.17
2019-02-10T22:27:50.757Z,98253.80
2019-02-10T22:30:22.359Z,98246.38
2019-02-10T22:32:54.085Z,98236.84
2019-02-10T22:35:25.997Z,98229.89
2019-02-10T22:37:58.105Z,98216.01
2019-02-10T22:40:29.759Z,98227.13
2019-02-10T22:43:03.295Z,98210.58
2019-02-10T22:45:35.390Z,98205.31
2019-02-10T22:48:06.883Z,98208.80
2019-02-10T22:50:38.321Z,98215.00
2019-02-10T22:53:10.056Z,98202.41
2019-02-10T22:55:41.868Z,98205.44
2019-02-10T22:58:13.980Z,98213.80
2019-02-10T23:01:03.359Z,98198.59
2019-02-10T23:03:35.340Z,98197.58
2019-02-10T23:06:08.442Z,98189.55
2019-02-10T23:08:39.978Z,98198.94
2019-02-10T23:11:11.531Z,98186.33
2019-02-10T23:13:42.989Z,98203.95
2019-02-10T23:16:14.514Z,98206.84
2019-02-10T23:18:45.925Z,98214.95
2019-02-10T23:21:17.299Z,98203.72
2019-02-10T23:23:48.815Z,98200.41
2019-02-10T23:26:20.436Z,98199.77
2019-02-10T23:28:51.785Z,98212.69
2019-02-10T23:31:23.223Z,98209.57
2019-02-10T23:33:54.787Z,98201.61
2019-02-10T23:36:26.549Z,98205.64
2019-02-10T23:38:58.163Z,98193.53
2019-02-10T23:41:30.030Z,98188.30
2019-02-10T23:44:06.123Z,98189.70
2019-02-10T23:46:37.889Z,98172.03
2019-02-10T23:49:09.844Z,98175.12
2019-02-10T23:51:41.685Z,98154.27
2019-02-10T23:54:14.073Z,98147.33
2019-02-10T23:56:47.201Z,98123.33
2019-02-10T23:59:19.196Z,98117.19
